sensor_id;sensor_type;location;lat;lon;timestamp;temperature;humidity
2054;DHT22;1032;52.542;13.440;2022-08-18T00:01:48;26.10;82.30
2054;DHT22;1032;52.542;13.440;2022-08-18T00:04:15;26.10;82.70
2054;DHT22;1032;52.542;13.440;2022-08-18T00:06:42;26.00;82.70
2054;DHT22;1032;52.542;13.440;2022-08-18T00:09:10;26.00;82.90
2054;DHT22;1032;52.542;13.440;2022-08-18T00:11:39;26.00;83.00
2054;DHT22;1032;52.542;13.440;2022-08-18T00:14:07;26.00;83.10
2054;DHT22;1032;52.542;13.440;2022-08-18T00:16:33;26.00;83.10
2054;DHT22;1032;52.542;13.440;2022-08-18T00:19:01;25.80;83.00
2054;DHT22;1032;52.542;13.440;2022-08-18T00:21:28;25.90;83.30
2054;DHT22;1032;52.542;13.440;2022-08-18T00:23:55;25.90;83.40
2054;DHT22;1032;52.542;13.440;2022-08-18T00:26:22;25.70;83.30
2054;DHT22;1032;52.542;13.440;2022-08-18T00:28:48;25.80;83.50
2054;DHT22;1032;52.542;13.440;2022-08-18T00:31:15;25.80;83.60
2054;DHT22;1032;52.542;13.440;2022-08-18T00:33:42;25.80;83.70
2054;DHT22;1032;52.542;13.440;2022-08-18T00:36:10;25.70;83.70
2054;DHT22;1032;52.542;13.440;2022-08-18T00:38:38;25.70;83.70
2054;DHT22;1032;52.542;13.440;2022-08-18T00:41:06;25.70;83.90
2054;DHT22;1032;52.542;13.440;2022-08-18T00:43:37;25.70;84.00
2054;DHT22;1032;52.542;13.440;2022-08-18T00:46:05;25.70;84.20
2054;DHT22;1032;52.542;13.440;2022-08-18T00:48:32;25.60;84.20
2054;DHT22;1032;52.542;13.440;2022-08-18T00:51:03;25.50;84.20
2054;DHT22;1032;52.542;13.440;2022-08-18T00:53:37;25.60;84.40
2054;DHT22;1032;52.542;13.440;2022-08-18T00:56:10;25.60;84.50
2054;DHT22;1032;52.542;13.440;2022-08-18T00:58:41;25.50;84.60
2054;DHT22;1032;52.542;13.440;2022-08-18T01:01:10;25.50;84.70
2054;DHT22;1032;52.542;13.440;2022-08-18T01:03:38;25.50;84.70
2054;DHT22;1032;52.542;13.440;2022-08-18T01:06:08;25.40;84.70
2054;DHT22;1032;52.542;13.440;2022-08-18T01:08:40;25.50;84.80
2054;DHT22;1032;52.542;13.440;2022-08-18T01:11:07;25.50;84.90
2054;DHT22;1032;52.542;13.440;2022-08-18T01:13:56;25.40;84.80
2054;DHT22;1032;52.542;13.440;2022-08-18T01:16:23;25.40;84.90
2054;DHT22;1032;52.542;13.440;2022-08-18T01:19:07;25.40;84.90
2054;DHT22;1032;52.542;13.440;2022-08-18T01:21:58;25.30;84.80
2054;DHT22;1032;52.542;13.440;2022-08-18T01:24:33;25.40;84.90
2054;DHT22;1032;52.542;13.440;2022-08-18T01:27:19;25.30;84.90
2054;DHT22;1032;52.542;13.440;2022-08-18T01:29:47;25.30;84.90
2054;DHT22;1032;52.542;13.440;2022-08-18T01:32:15;25.20;84.80
2054;DHT22;1032;52.542;13.440;2022-08-18T01:34:44;25.30;84.70
2054;DHT22;1032;52.542;13.440;2022-08-18T01:37:13;25.30;84.80
2054;DHT22;1032;52.542;13.440;2022-08-18T01:39:42;25.30;84.80
2054;DHT22;1032;52.542;13.440;2022-08-18T01:42:09;25.30;84.60
2054;DHT22;1032;52.542;13.440;2022-08-18T01:44:37;25.30;84.30
2054;DHT22;1032;52.542;13.440;2022-08-18T01:47:06;25.30;84.20
2054;DHT22;1032;52.542;13.440;2022-08-18T01:49:32;25.40;84.30
2054;DHT22;1032;52.542;13.440;2022-08-18T01:51:59;25.40;84.10
2054;DHT22;1032;52.542;13.440;2022-08-18T01:54:25;25.40;84.00
2054;DHT22;1032;52.542;13.440;2022-08-18T01:56:56;25.40;83.70
2054;DHT22;1032;52.542;13.440;2022-08-18T01:59:22;25.20;83.40
2054;DHT22;1032;52.542;13.440;2022-08-18T02:01:49;25.30;83.40
2054;DHT22;1032;52.542;13.440;2022-08-18T02:04:18;25.40;83.20
2054;DHT22;1032;52.542;13.440;2022-08-18T02:06:46;25.40;82.90
2054;DHT22;1032;52.542;13.440;2022-08-18T02:09:12;25.30;82.50
2054;DHT22;1032;52.542;13.440;2022-08-18T02:11:39;25.40;82.50
2054;DHT22;1032;52.542;13.440;2022-08-18T02:14:07;25.30;82.20
2054;DHT22;1032;52.542;13.440;2022-08-18T02:16:33;25.30;82.50
2054;DHT22;1032;52.542;13.440;2022-08-18T02:19:00;25.30;82.40
2054;DHT22;1032;52.542;13.440;2022-08-18T02:21:27;25.30;82.30
2054;DHT22;1032;52.542;13.440;2022-08-18T02:23:53;25.50;82.50
2054;DHT22;1032;52.542;13.440;2022-08-18T02:26:21;25.30;82.40
2054;DHT22;1032;52.542;13.440;2022-08-18T02:28:48;25.20;82.50
2054;DHT22;1032;52.542;13.440;2022-08-18T02:31:18;25.20;82.50
2054;DHT22;1032;52.542;13.440;2022-08-18T02:33:45;25.20;82.50
2054;DHT22;1032;52.542;13.440;2022-08-18T02:36:13;25.20;82.60
2054;DHT22;1032;52.542;13.440;2022-08-18T02:38:40;25.20;82.60
2054;DHT22;1032;52.542;13.440;2022-08-18T02:41:10;25.10;82.60
2054;DHT22;1032;52.542;13.440;2022-08-18T02:43:38;25.20;82.80
2054;DHT22;1032;52.542;13.440;2022-08-18T02:46:07;25.20;82.70
2054;DHT22;1032;52.542;13.440;2022-08-18T02:48:36;25.10;82.60
2054;DHT22;1032;52.542;13.440;2022-08-18T02:51:04;25.20;82.90
2054;DHT22;1032;52.542;13.440;2022-08-18T02:53:32;25.10;83.20
2054;DHT22;1032;52.542;13.440;2022-08-18T02:56:05;25.10;83.40
2054;DHT22;1032;52.542;13.440;2022-08-18T02:58:41;25.10;83.70
2054;DHT22;1032;52.542;13.440;2022-08-18T03:01:07;25.00;83.70
2054;DHT22;1032;52.542;13.440;2022-08-18T03:03:36;25.00;83.80
2054;DHT22;1032;52.542;13.440;2022-08-18T03:06:03;24.70;83.80
2054;DHT22;1032;52.542;13.440;2022-08-18T03:08:30;24.90;84.00
2054;DHT22;1032;52.542;13.440;2022-08-18T03:10:57;24.90;84.40
2054;DHT22;1032;52.542;13.440;2022-08-18T03:13:24;24.90;84.60
2054;DHT22;1032;52.542;13.440;2022-08-18T03:15:50;24.80;84.90
2054;DHT22;1032;52.542;13.440;2022-08-18T03:18:17;24.80;85.00
2054;DHT22;1032;52.542;13.440;2022-08-18T03:20:45;24.70;85.20
2054;DHT22;1032;52.542;13.440;2022-08-18T03:23:12;24.70;85.50
2054;DHT22;1032;52.542;13.440;2022-08-18T03:25:43;24.70;85.70
2054;DHT22;1032;52.542;13.440;2022-08-18T03:28:10;24.60;85.90
2054;DHT22;1032;52.542;13.440;2022-08-18T03:30:36;24.60;86.20
2054;DHT22;1032;52.542;13.440;2022-08-18T03:33:03;24.50;86.30
2054;DHT22;1032;52.542;13.440;2022-08-18T03:35:30;24.50;86.50
2054;DHT22;1032;52.542;13.440;2022-08-18T03:37:59;24.40;86.60
2054;DHT22;1032;52.542;13.440;2022-08-18T03:40:25;24.40;86.90
2054;DHT22;1032;52.542;13.440;2022-08-18T03:42:52;24.40;87.20
2054;DHT22;1032;52.542;13.440;2022-08-18T03:45:19;24.30;87.30
2054;DHT22;1032;52.542;13.440;2022-08-18T03:47:47;24.30;87.50
2054;DHT22;1032;52.542;13.440;2022-08-18T03:50:16;24.30;87.80
2054;DHT22;1032;52.542;13.440;2022-08-18T03:52:44;24.30;88.00
2054;DHT22;1032;52.542;13.440;2022-08-18T03:55:14;24.10;87.90
2054;DHT22;1032;52.542;13.440;2022-08-18T03:57:40;24.30;88.20
2054;DHT22;1032;52.542;13.440;2022-08-18T04:00:08;24.30;88.40
2054;DHT22;1032;52.542;13.440;2022-08-18T04:02:36;24.30;88.50
2054;DHT22;1032;52.542;13.440;2022-08-18T04:05:03;24.00;88.40
2054;DHT22;1032;52.542;13.440;2022-08-18T04:07:30;24.30;88.90
2054;DHT22;1032;52.542;13.440;2022-08-18T04:09:57;24.30;88.90
2054;DHT22;1032;52.542;13.440;2022-08-18T04:12:25;24.30;89.10
2054;DHT22;1032;52.542;13.440;2022-08-18T04:14:52;24.20;89.10
2054;DHT22;1032;52.542;13.440;2022-08-18T04:17:20;24.30;89.30
2054;DHT22;1032;52.542;13.440;2022-08-18T04:19:49;24.30;89.40
2054;DHT22;1032;52.542;13.440;2022-08-18T04:22:16;24.10;88.90
2054;DHT22;1032;52.542;13.440;2022-08-18T04:24:43;24.30;88.70
2054;DHT22;1032;52.542;13.440;2022-08-18T04:27:10;24.40;88.50
2054;DHT22;1032;52.542;13.440;2022-08-18T04:29:38;24.40;88.30
2054;DHT22;1032;52.542;13.440;2022-08-18T04:32:05;24.50;88.40
2054;DHT22;1032;52.542;13.440;2022-08-18T04:34:33;24.50;88.50
2054;DHT22;1032;52.542;13.440;2022-08-18T04:36:59;24.50;88.30
2054;DHT22;1032;52.542;13.440;2022-08-18T04:39:27;24.60;88.30
2054;DHT22;1032;52.542;13.440;2022-08-18T04:41:54;24.50;88.20
2054;DHT22;1032;52.542;13.440;2022-08-18T04:44:21;24.60;88.20
2054;DHT22;1032;52.542;13.440;2022-08-18T04:46:51;24.70;88.20
2054;DHT22;1032;52.542;13.440;2022-08-18T04:49:19;24.70;88.20
2054;DHT22;1032;52.542;13.440;2022-08-18T04:51:49;24.70;88.10
2054;DHT22;1032;52.542;13.440;2022-08-18T04:54:29;24.60;87.70
2054;DHT22;1032;52.542;13.440;2022-08-18T04:56:56;24.80;87.90
2054;DHT22;1032;52.542;13.440;2022-08-18T04:59:23;24.80;87.90
2054;DHT22;1032;52.542;13.440;2022-08-18T05:01:51;24.90;87.90
2054;DHT22;1032;52.542;13.440;2022-08-18T05:04:18;24.90;87.40
2054;DHT22;1032;52.542;13.440;2022-08-18T05:06:45;24.90;86.90
2054;DHT22;1032;52.542;13.440;2022-08-18T05:09:13;25.00;86.50
2054;DHT22;1032;52.542;13.440;2022-08-18T05:11:40;25.00;86.20
2054;DHT22;1032;52.542;13.440;2022-08-18T05:14:09;25.10;86.10
2054;DHT22;1032;52.542;13.440;2022-08-18T05:16:36;25.10;85.80
2054;DHT22;1032;52.542;13.440;2022-08-18T05:19:07;25.20;85.70
2054;DHT22;1032;52.542;13.440;2022-08-18T05:21:35;25.30;85.50
2054;DHT22;1032;52.542;13.440;2022-08-18T05:24:03;25.30;85.20
2054;DHT22;1032;52.542;13.440;2022-08-18T05:26:30;25.40;85.00
2054;DHT22;1032;52.542;13.440;2022-08-18T05:28:57;25.40;84.80
2054;DHT22;1032;52.542;13.440;2022-08-18T05:31:26;25.40;84.60
2054;DHT22;1032;52.542;13.440;2022-08-18T05:33:54;25.50;84.50
2054;DHT22;1032;52.542;13.440;2022-08-18T05:36:44;25.70;84.60
2054;DHT22;1032;52.542;13.440;2022-08-18T05:39:21;25.50;84.30
2054;DHT22;1032;52.542;13.440;2022-08-18T05:41:51;25.50;84.40
2054;DHT22;1032;52.542;13.440;2022-08-18T05:44:21;25.50;84.40
2054;DHT22;1032;52.542;13.440;2022-08-18T05:46:52;25.60;84.50
2054;DHT22;1032;52.542;13.440;2022-08-18T05:49:19;25.60;84.80
2054;DHT22;1032;52.542;13.440;2022-08-18T05:51:51;25.60;84.70
2054;DHT22;1032;52.542;13.440;2022-08-18T05:54:20;25.60;84.70
2054;DHT22;1032;52.542;13.440;2022-08-18T05:57:08;25.60;84.50
2054;DHT22;1032;52.542;13.440;2022-08-18T05:59:38;25.70;84.90
2054;DHT22;1032;52.542;13.440;2022-08-18T06:02:13;25.70;84.70
2054;DHT22;1032;52.542;13.440;2022-08-18T06:04:44;25.70;84.10
2054;DHT22;1032;52.542;13.440;2022-08-18T06:07:17;25.80;83.70
2054;DHT22;1032;52.542;13.440;2022-08-18T06:09:47;25.80;83.50
2054;DHT22;1032;52.542;13.440;2022-08-18T06:12:25;25.80;83.30
2054;DHT22;1032;52.542;13.440;2022-08-18T06:15:01;26.00;82.80
2054;DHT22;1032;52.542;13.440;2022-08-18T06:20:23;26.00;82.00
2054;DHT22;1032;52.542;13.440;2022-08-18T06:22:59;26.30;81.90
2054;DHT22;1032;52.542;13.440;2022-08-18T06:25:34;26.50;81.70
2054;DHT22;1032;52.542;13.440;2022-08-18T06:28:06;26.50;81.70
2054;DHT22;1032;52.542;13.440;2022-08-18T06:30:44;26.60;81.30
2054;DHT22;1032;52.542;13.440;2022-08-18T06:33:35;26.80;81.00
2054;DHT22;1032;52.542;13.440;2022-08-18T06:36:11;26.80;80.00
2054;DHT22;1032;52.542;13.440;2022-08-18T06:38:49;27.00;79.30
2054;DHT22;1032;52.542;13.440;2022-08-18T06:41:19;27.10;78.30
2054;DHT22;1032;52.542;13.440;2022-08-18T06:43:57;27.10;78.10
2054;DHT22;1032;52.542;13.440;2022-08-18T06:46:31;27.20;77.60
2054;DHT22;1032;52.542;13.440;2022-08-18T06:49:03;27.30;77.70
2054;DHT22;1032;52.542;13.440;2022-08-18T06:51:30;27.30;77.50
2054;DHT22;1032;52.542;13.440;2022-08-18T06:54:01;27.40;77.40
2054;DHT22;1032;52.542;13.440;2022-08-18T06:56:34;27.40;77.10
2054;DHT22;1032;52.542;13.440;2022-08-18T06:59:29;27.40;77.10
2054;DHT22;1032;52.542;13.440;2022-08-18T07:01:59;27.40;76.50
2054;DHT22;1032;52.542;13.440;2022-08-18T07:04:41;27.40;77.10
2054;DHT22;1032;52.542;13.440;2022-08-18T07:07:14;27.40;76.70
2054;DHT22;1032;52.542;13.440;2022-08-18T07:09:44;27.50;76.80
2054;DHT22;1032;52.542;13.440;2022-08-18T07:12:18;27.40;76.70
2054;DHT22;1032;52.542;13.440;2022-08-18T07:14:47;27.60;76.60
2054;DHT22;1032;52.542;13.440;2022-08-18T07:17:20;27.60;76.50
2054;DHT22;1032;52.542;13.440;2022-08-18T07:19:58;27.70;76.30
2054;DHT22;1032;52.542;13.440;2022-08-18T07:22:25;27.70;76.10
2054;DHT22;1032;52.542;13.440;2022-08-18T07:24:55;27.80;76.20
2054;DHT22;1032;52.542;13.440;2022-08-18T07:27:41;27.80;76.00
2054;DHT22;1032;52.542;13.440;2022-08-18T07:30:11;27.90;75.50
2054;DHT22;1032;52.542;13.440;2022-08-18T07:32:43;27.90;76.40
2054;DHT22;1032;52.542;13.440;2022-08-18T07:35:16;28.00;75.40
2054;DHT22;1032;52.542;13.440;2022-08-18T07:37:47;28.00;75.20
2054;DHT22;1032;52.542;13.440;2022-08-18T07:40:23;27.90;74.70
2054;DHT22;1032;52.542;13.440;2022-08-18T07:42:57;28.10;74.50
2054;DHT22;1032;52.542;13.440;2022-08-18T07:45:28;28.10;74.40
2054;DHT22;1032;52.542;13.440;2022-08-18T07:48:02;27.90;74.20
2054;DHT22;1032;52.542;13.440;2022-08-18T07:50:33;28.20;74.10
2054;DHT22;1032;52.542;13.440;2022-08-18T07:53:07;28.30;74.00
2054;DHT22;1032;52.542;13.440;2022-08-18T07:55:40;28.30;74.00
2054;DHT22;1032;52.542;13.440;2022-08-18T07:58:17;28.40;74.00
2054;DHT22;1032;52.542;13.440;2022-08-18T08:00:52;28.40;73.70
2054;DHT22;1032;52.542;13.440;2022-08-18T08:03:30;28.50;73.00
2054;DHT22;1032;52.542;13.440;2022-08-18T08:06:03;28.60;72.60
2054;DHT22;1032;52.542;13.440;2022-08-18T08:08:40;28.70;72.80
2054;DHT22;1032;52.542;13.440;2022-08-18T08:11:17;28.70;72.20
2054;DHT22;1032;52.542;13.440;2022-08-18T08:13:56;28.80;71.80
2054;DHT22;1032;52.542;13.440;2022-08-18T08:16:35;28.80;71.40
2054;DHT22;1032;52.542;13.440;2022-08-18T08:19:09;28.90;71.30
2054;DHT22;1032;52.542;13.440;2022-08-18T08:21:43;28.80;71.30
2054;DHT22;1032;52.542;13.440;2022-08-18T08:24:16;28.80;71.40
2054;DHT22;1032;52.542;13.440;2022-08-18T08:26:50;28.90;71.20
2054;DHT22;1032;52.542;13.440;2022-08-18T08:29:27;28.70;70.60
2054;DHT22;1032;52.542;13.440;2022-08-18T08:32:01;28.90;71.00
2054;DHT22;1032;52.542;13.440;2022-08-18T08:34:36;28.90;70.60
2054;DHT22;1032;52.542;13.440;2022-08-18T08:37:06;28.90;70.40
2054;DHT22;1032;52.542;13.440;2022-08-18T08:39:37;29.00;70.40
2054;DHT22;1032;52.542;13.440;2022-08-18T08:42:10;29.10;70.10
2054;DHT22;1032;52.542;13.440;2022-08-18T08:44:43;29.20;69.90
2054;DHT22;1032;52.542;13.440;2022-08-18T08:47:17;29.30;69.60
2054;DHT22;1032;52.542;13.440;2022-08-18T08:49:50;29.40;69.50
2054;DHT22;1032;52.542;13.440;2022-08-18T08:52:21;29.40;69.30
2054;DHT22;1032;52.542;13.440;2022-08-18T08:54:52;29.30;68.90
2054;DHT22;1032;52.542;13.440;2022-08-18T08:57:26;29.50;68.70
2054;DHT22;1032;52.542;13.440;2022-08-18T08:59:57;29.60;68.60
2054;DHT22;1032;52.542;13.440;2022-08-18T09:02:48;29.60;68.60
2054;DHT22;1032;52.542;13.440;2022-08-18T09:05:20;29.70;68.40
2054;DHT22;1032;52.542;13.440;2022-08-18T09:11:21;29.80;67.40
2054;DHT22;1032;52.542;13.440;2022-08-18T09:14:10;29.80;67.00
2054;DHT22;1032;52.542;13.440;2022-08-18T09:16:48;29.70;67.10
2054;DHT22;1032;52.542;13.440;2022-08-18T09:19:33;29.70;67.30
2054;DHT22;1032;52.542;13.440;2022-08-18T09:22:09;29.70;67.20
2054;DHT22;1032;52.542;13.440;2022-08-18T09:24:45;29.70;67.60
2054;DHT22;1032;52.542;13.440;2022-08-18T09:27:15;29.70;68.10
2054;DHT22;1032;52.542;13.440;2022-08-18T09:29:54;29.70;68.10
2054;DHT22;1032;52.542;13.440;2022-08-18T09:32:48;29.80;68.00
2054;DHT22;1032;52.542;13.440;2022-08-18T09:35:31;29.90;67.90
2054;DHT22;1032;52.542;13.440;2022-08-18T09:38:07;30.00;68.00
2054;DHT22;1032;52.542;13.440;2022-08-18T09:40:55;30.10;68.40
2054;DHT22;1032;52.542;13.440;2022-08-18T09:43:54;30.10;68.00
2054;DHT22;1032;52.542;13.440;2022-08-18T09:47:02;30.20;67.20
2054;DHT22;1032;52.542;13.440;2022-08-18T09:49:48;30.20;66.80
2054;DHT22;1032;52.542;13.440;2022-08-18T09:55:39;30.20;66.40
2054;DHT22;1032;52.542;13.440;2022-08-18T09:58:13;30.20;66.40
2054;DHT22;1032;52.542;13.440;2022-08-18T10:00:40;30.30;66.10
2054;DHT22;1032;52.542;13.440;2022-08-18T10:03:22;30.20;66.60
2054;DHT22;1032;52.542;13.440;2022-08-18T10:06:13;30.40;66.30
2054;DHT22;1032;52.542;13.440;2022-08-18T10:09:03;30.50;65.30
2054;DHT22;1032;52.542;13.440;2022-08-18T10:11:44;30.50;64.60
2054;DHT22;1032;52.542;13.440;2022-08-18T10:14:36;30.70;64.70
2054;DHT22;1032;52.542;13.440;2022-08-18T10:17:26;30.70;64.80
2054;DHT22;1032;52.542;13.440;2022-08-18T10:20:09;30.80;65.10
2054;DHT22;1032;52.542;13.440;2022-08-18T10:22:42;30.80;64.90
2054;DHT22;1032;52.542;13.440;2022-08-18T10:25:12;30.80;64.70
2054;DHT22;1032;52.542;13.440;2022-08-18T10:27:49;30.90;64.90
2054;DHT22;1032;52.542;13.440;2022-08-18T10:30:43;31.00;64.30
2054;DHT22;1032;52.542;13.440;2022-08-18T10:33:11;31.00;63.60
2054;DHT22;1032;52.542;13.440;2022-08-18T10:35:58;30.90;64.00
2054;DHT22;1032;52.542;13.440;2022-08-18T10:38:37;30.90;63.30
2054;DHT22;1032;52.542;13.440;2022-08-18T10:41:10;30.90;63.40
2054;DHT22;1032;52.542;13.440;2022-08-18T10:43:41;30.80;63.40
2054;DHT22;1032;52.542;13.440;2022-08-18T10:46:15;30.80;63.60
2054;DHT22;1032;52.542;13.440;2022-08-18T10:48:43;30.70;63.30
2054;DHT22;1032;52.542;13.440;2022-08-18T10:51:17;30.80;63.60
2054;DHT22;1032;52.542;13.440;2022-08-18T10:53:50;30.80;63.40
2054;DHT22;1032;52.542;13.440;2022-08-18T10:56:27;30.80;63.20
2054;DHT22;1032;52.542;13.440;2022-08-18T10:59:15;30.90;63.20
2054;DHT22;1032;52.542;13.440;2022-08-18T11:02:04;30.90;62.90
2054;DHT22;1032;52.542;13.440;2022-08-18T11:04:37;31.00;61.80
2054;DHT22;1032;52.542;13.440;2022-08-18T11:07:11;31.00;61.70
2054;DHT22;1032;52.542;13.440;2022-08-18T11:09:41;31.00;60.90
2054;DHT22;1032;52.542;13.440;2022-08-18T11:12:12;31.00;60.10
2054;DHT22;1032;52.542;13.440;2022-08-18T11:14:49;31.00;59.70
2054;DHT22;1032;52.542;13.440;2022-08-18T11:17:28;31.00;59.80
2054;DHT22;1032;52.542;13.440;2022-08-18T11:19:58;31.00;59.40
2054;DHT22;1032;52.542;13.440;2022-08-18T11:22:29;31.00;59.70
2054;DHT22;1032;52.542;13.440;2022-08-18T11:24:56;31.00;59.90
2054;DHT22;1032;52.542;13.440;2022-08-18T11:27:25;31.00;59.60
2054;DHT22;1032;52.542;13.440;2022-08-18T11:29:53;31.00;59.60
2054;DHT22;1032;52.542;13.440;2022-08-18T11:32:23;31.00;59.70
2054;DHT22;1032;52.542;13.440;2022-08-18T11:35:00;31.00;59.50
2054;DHT22;1032;52.542;13.440;2022-08-18T11:37:33;31.10;59.50
2054;DHT22;1032;52.542;13.440;2022-08-18T11:40:06;31.10;59.60
2054;DHT22;1032;52.542;13.440;2022-08-18T11:42:39;31.00;59.60
2054;DHT22;1032;52.542;13.440;2022-08-18T11:45:14;31.00;59.90
2054;DHT22;1032;52.542;13.440;2022-08-18T11:47:57;31.00;59.90
2054;DHT22;1032;52.542;13.440;2022-08-18T11:50:28;31.00;59.10
2054;DHT22;1032;52.542;13.440;2022-08-18T11:53:04;31.00;58.80
2054;DHT22;1032;52.542;13.440;2022-08-18T11:55:36;31.00;59.00
2054;DHT22;1032;52.542;13.440;2022-08-18T11:58:03;30.80;58.60
2054;DHT22;1032;52.542;13.440;2022-08-18T12:00:55;31.00;57.80
2054;DHT22;1032;52.542;13.440;2022-08-18T12:03:29;31.10;57.40
2054;DHT22;1032;52.542;13.440;2022-08-18T12:05:58;31.00;57.70
2054;DHT22;1032;52.542;13.440;2022-08-18T12:08:34;31.10;57.50
2054;DHT22;1032;52.542;13.440;2022-08-18T12:11:15;31.20;56.70
2054;DHT22;1032;52.542;13.440;2022-08-18T12:13:45;31.20;56.90
2054;DHT22;1032;52.542;13.440;2022-08-18T12:16:15;31.30;56.40
2054;DHT22;1032;52.542;13.440;2022-08-18T12:18:43;31.30;56.70
2054;DHT22;1032;52.542;13.440;2022-08-18T12:21:10;31.40;57.20
2054;DHT22;1032;52.542;13.440;2022-08-18T12:23:40;31.40;56.20
2054;DHT22;1032;52.542;13.440;2022-08-18T12:26:07;31.40;55.90
2054;DHT22;1032;52.542;13.440;2022-08-18T12:28:35;31.50;55.30
2054;DHT22;1032;52.542;13.440;2022-08-18T12:31:01;31.50;56.10
2054;DHT22;1032;52.542;13.440;2022-08-18T12:33:28;31.60;55.00
2054;DHT22;1032;52.542;13.440;2022-08-18T12:35:56;31.70;54.10
2054;DHT22;1032;52.542;13.440;2022-08-18T12:38:22;31.70;53.60
2054;DHT22;1032;52.542;13.440;2022-08-18T12:40:51;31.90;53.60
2054;DHT22;1032;52.542;13.440;2022-08-18T12:43:18;32.10;53.70
2054;DHT22;1032;52.542;13.440;2022-08-18T12:45:45;32.20;53.30
2054;DHT22;1032;52.542;13.440;2022-08-18T12:48:12;32.20;53.10
2054;DHT22;1032;52.542;13.440;2022-08-18T12:50:39;32.30;52.90
2054;DHT22;1032;52.542;13.440;2022-08-18T12:53:06;32.40;53.30
2054;DHT22;1032;52.542;13.440;2022-08-18T12:55:36;32.50;53.30
2054;DHT22;1032;52.542;13.440;2022-08-18T12:58:06;32.50;53.50
2054;DHT22;1032;52.542;13.440;2022-08-18T13:00:33;32.40;53.50
2054;DHT22;1032;52.542;13.440;2022-08-18T13:03:00;32.40;53.50
2054;DHT22;1032;52.542;13.440;2022-08-18T13:05:28;32.40;53.40
2054;DHT22;1032;52.542;13.440;2022-08-18T13:07:57;32.50;53.70
2054;DHT22;1032;52.542;13.440;2022-08-18T13:10:24;32.50;53.50
2054;DHT22;1032;52.542;13.440;2022-08-18T13:12:50;32.50;52.90
2054;DHT22;1032;52.542;13.440;2022-08-18T13:15:18;32.50;52.90
2054;DHT22;1032;52.542;13.440;2022-08-18T13:17:45;32.60;52.90
2054;DHT22;1032;52.542;13.440;2022-08-18T13:20:14;32.70;52.70
2054;DHT22;1032;52.542;13.440;2022-08-18T13:22:41;32.60;52.40
2054;DHT22;1032;52.542;13.440;2022-08-18T13:25:10;32.60;52.40
2054;DHT22;1032;52.542;13.440;2022-08-18T13:27:36;32.60;52.50
2054;DHT22;1032;52.542;13.440;2022-08-18T13:30:08;32.60;52.60
2054;DHT22;1032;52.542;13.440;2022-08-18T13:32:36;32.60;53.10
2054;DHT22;1032;52.542;13.440;2022-08-18T13:35:04;32.60;53.70
2054;DHT22;1032;52.542;13.440;2022-08-18T13:37:31;32.60;53.80
2054;DHT22;1032;52.542;13.440;2022-08-18T13:39:57;32.60;53.60
2054;DHT22;1032;52.542;13.440;2022-08-18T13:42:25;32.60;53.80
2054;DHT22;1032;52.542;13.440;2022-08-18T13:44:53;32.60;53.80
2054;DHT22;1032;52.542;13.440;2022-08-18T13:47:21;32.60;53.60
2054;DHT22;1032;52.542;13.440;2022-08-18T13:49:49;32.60;53.40
2054;DHT22;1032;52.542;13.440;2022-08-18T13:52:16;32.60;53.20
2054;DHT22;1032;52.542;13.440;2022-08-18T13:54:42;32.70;53.10
2054;DHT22;1032;52.542;13.440;2022-08-18T13:57:11;32.60;53.10
2054;DHT22;1032;52.542;13.440;2022-08-18T13:59:37;32.80;53.10
2054;DHT22;1032;52.542;13.440;2022-08-18T14:02:07;32.90;52.80
2054;DHT22;1032;52.542;13.440;2022-08-18T14:04:35;33.00;52.30
2054;DHT22;1032;52.542;13.440;2022-08-18T14:07:05;33.00;52.40
2054;DHT22;1032;52.542;13.440;2022-08-18T14:09:34;32.90;52.20
2054;DHT22;1032;52.542;13.440;2022-08-18T14:12:02;33.10;52.00
2054;DHT22;1032;52.542;13.440;2022-08-18T14:14:29;33.20;51.70
2054;DHT22;1032;52.542;13.440;2022-08-18T14:16:56;33.10;51.50
2054;DHT22;1032;52.542;13.440;2022-08-18T14:19:22;33.20;51.80
2054;DHT22;1032;52.542;13.440;2022-08-18T14:22:08;33.10;51.60
2054;DHT22;1032;52.542;13.440;2022-08-18T14:24:52;33.20;51.90
2054;DHT22;1032;52.542;13.440;2022-08-18T14:27:37;33.20;52.20
2054;DHT22;1032;52.542;13.440;2022-08-18T14:30:08;33.20;52.00
2054;DHT22;1032;52.542;13.440;2022-08-18T14:32:35;33.30;52.00
2054;DHT22;1032;52.542;13.440;2022-08-18T14:35:04;33.30;51.70
2054;DHT22;1032;52.542;13.440;2022-08-18T14:37:33;33.50;51.70
2054;DHT22;1032;52.542;13.440;2022-08-18T14:40:00;33.40;51.40
2054;DHT22;1032;52.542;13.440;2022-08-18T14:42:28;33.40;51.50
2054;DHT22;1032;52.542;13.440;2022-08-18T14:44:54;33.30;51.50
2054;DHT22;1032;52.542;13.440;2022-08-18T14:47:23;33.20;51.50
2054;DHT22;1032;52.542;13.440;2022-08-18T14:49:51;33.10;51.60
2054;DHT22;1032;52.542;13.440;2022-08-18T14:52:18;33.10;51.90
2054;DHT22;1032;52.542;13.440;2022-08-18T14:54:47;33.00;52.90
2054;DHT22;1032;52.542;13.440;2022-08-18T14:57:13;32.90;53.50
2054;DHT22;1032;52.542;13.440;2022-08-18T14:59:40;32.70;54.10
2054;DHT22;1032;52.542;13.440;2022-08-18T15:02:09;32.50;54.50
2054;DHT22;1032;52.542;13.440;2022-08-18T15:04:36;32.50;55.00
2054;DHT22;1032;52.542;13.440;2022-08-18T15:07:03;32.40;55.30
2054;DHT22;1032;52.542;13.440;2022-08-18T15:09:30;32.30;55.60
2054;DHT22;1032;52.542;13.440;2022-08-18T15:11:59;32.30;56.00
2054;DHT22;1032;52.542;13.440;2022-08-18T15:14:27;32.10;56.30
2054;DHT22;1032;52.542;13.440;2022-08-18T15:16:55;32.00;56.80
2054;DHT22;1032;52.542;13.440;2022-08-18T15:19:23;31.90;56.80
2054;DHT22;1032;52.542;13.440;2022-08-18T15:21:49;31.80;57.10
2054;DHT22;1032;52.542;13.440;2022-08-18T15:24:37;31.80;57.30
2054;DHT22;1032;52.542;13.440;2022-08-18T15:27:23;31.80;57.50
2054;DHT22;1032;52.542;13.440;2022-08-18T15:29:55;31.90;57.70
2054;DHT22;1032;52.542;13.440;2022-08-18T15:32:23;31.70;57.70
2054;DHT22;1032;52.542;13.440;2022-08-18T15:34:50;31.60;57.70
2054;DHT22;1032;52.542;13.440;2022-08-18T15:37:17;31.50;57.70
2054;DHT22;1032;52.542;13.440;2022-08-18T15:39:43;31.50;57.70
2054;DHT22;1032;52.542;13.440;2022-08-18T15:42:11;31.50;57.80
2054;DHT22;1032;52.542;13.440;2022-08-18T15:44:39;31.50;57.90
2054;DHT22;1032;52.542;13.440;2022-08-18T15:47:06;31.50;58.00
2054;DHT22;1032;52.542;13.440;2022-08-18T15:49:32;31.30;57.70
2054;DHT22;1032;52.542;13.440;2022-08-18T15:51:59;31.40;57.70
2054;DHT22;1032;52.542;13.440;2022-08-18T15:54:26;31.40;57.60
2054;DHT22;1032;52.542;13.440;2022-08-18T15:56:52;31.40;57.40
2054;DHT22;1032;52.542;13.440;2022-08-18T15:59:19;31.40;57.30
2054;DHT22;1032;52.542;13.440;2022-08-18T16:01:47;31.40;57.30
2054;DHT22;1032;52.542;13.440;2022-08-18T16:04:14;31.40;57.30
2054;DHT22;1032;52.542;13.440;2022-08-18T16:06:41;31.50;57.40
2054;DHT22;1032;52.542;13.440;2022-08-18T16:09:12;31.50;57.40
2054;DHT22;1032;52.542;13.440;2022-08-18T16:11:40;31.50;57.40
2054;DHT22;1032;52.542;13.440;2022-08-18T16:14:06;31.40;57.40
2054;DHT22;1032;52.542;13.440;2022-08-18T16:16:34;31.40;57.30
2054;DHT22;1032;52.542;13.440;2022-08-18T16:19:03;31.20;57.40
2054;DHT22;1032;52.542;13.440;2022-08-18T16:21:29;31.20;57.40